Deport, Texas
Current Conditions -  °F | °C
As of 7:15 AM on Sunday 21 Dec 2014 (Local Time) from KPRX Reporting Station
Overcast Overcast  
Wind Chill: 40°   Ceiling: 3500
Heat Index: 45°   Visibility: 10mi
Dew Point: 39°   Wind: 9mph
Humidity: 81%   Direction: 130°SE
Pressure: 30.15"   Gusts: NA
Location:  33.53°N, 95.32°W
Report Text: KPRX 211315Z 13008KT 10SM FEW026 OVC035 07/04 A3015 RMK AO1
Loading
Personal Weather Stations






























Interactive Weather Map New forecast layout! Learn more

10-Day Weather Forecast

Advertisements
Track Severe Weather on mobile